Time;durP1;ratioP1;P1;durP2;ratioP2;P2;SDS_P1;SDS_P2;PMS_P1;PMS_P2;Temp;Humidity;BMP_temperature;BMP_pressure;BME280_temperature;BME280_humidity;BME280_pressure;Samples;Min_cycle;Max_cycle;Signal;HPM_P1;HPM_P2
2021/05/20 00:02:09;;;;;;;4.65;0.88;;;;;;;;;;5110442;28;20030;-73
2021/05/20 00:04:35;;;;;;;5.60;1.33;;;;;;;;;;5110344;28;20024;-72
2021/05/20 00:07:01;;;;;;;3.30;0.82;;;;;;;;;;5110255;28;20028;-72
2021/05/20 00:09:28;;;;;;;2.53;0.85;;;;;;;;;;5110245;28;20380;-72
2021/05/20 00:11:54;;;;;;;2.83;1.30;;;;;;;;;;5110065;28;20036;-72
2021/05/20 00:14:41;;;;;;;3.25;1.30;;;;;;;;;;5110180;27;20162;-72
2021/05/20 00:17:08;;;;;;;3.53;1.20;;;;;;;;;;5109329;28;20514;-72
2021/05/20 00:19:34;;;;;;;3.67;0.93;;;;;;;;;;5110630;28;20476;-72
2021/05/20 00:22:00;;;;;;;2.47;0.80;;;;;;;;;;5110032;28;20027;-72
2021/05/20 00:24:26;;;;;;;4.55;1.05;;;;;;;;;;5110319;28;20472;-72
2021/05/20 00:26:52;;;;;;;2.88;1.10;;;;;;;;;;5110042;28;20024;-72
2021/05/20 00:31:27;;;;;;;6.43;1.38;;;;;;;;;;5110530;27;20749;-72
2021/05/20 00:33:54;;;;;;;2.92;0.95;;;;;;;;;;5110012;28;20095;-72
2021/05/20 00:37:09;;;;;;;2.40;0.82;;;;;;;;;;5110636;27;20392;-72
2021/05/20 00:41:30;;;;;;;1.73;0.70;;;;;;;;;;5110318;27;20395;-72
2021/05/20 00:43:56;;;;;;;4.05;1.02;;;;;;;;;;5110500;28;20505;-73
2021/05/20 00:46:22;;;;;;;1.88;0.80;;;;;;;;;;5110416;28;20065;-72
2021/05/20 00:48:49;;;;;;;3.50;0.70;;;;;;;;;;5110146;28;20073;-72
2021/05/20 00:51:15;;;;;;;3.00;1.00;;;;;;;;;;5110416;28;20031;-72
2021/05/20 00:54:34;;;;;;;4.93;1.30;;;;;;;;;;5069886;28;20391;-72
2021/05/20 00:57:00;;;;;;;2.40;0.73;;;;;;;;;;5068444;28;20485;-72
2021/05/20 00:59:26;;;;;;;2.83;0.70;;;;;;;;;;5068755;28;20025;-72
2021/05/20 01:02:01;;;;;;;5.25;1.00;;;;;;;;;;5049607;28;20443;-72
2021/05/20 01:04:27;;;;;;;4.68;1.55;;;;;;;;;;5049982;28;20029;-72
2021/05/20 01:06:53;;;;;;;6.88;1.65;;;;;;;;;;5048528;28;20027;-72
2021/05/20 01:13:05;;;;;;;3.90;1.75;;;;;;;;;;5110553;27;20377;-72
2021/05/20 01:15:32;;;;;;;5.05;1.17;;;;;;;;;;5110604;28;20047;-72
2021/05/20 01:20:16;;;;;;;4.72;1.45;;;;;;;;;;5110512;27;20446;-72
2021/05/20 01:22:42;;;;;;;4.75;1.52;;;;;;;;;;5109233;28;20444;-72
2021/05/20 01:25:41;;;;;;;8.55;2.00;;;;;;;;;;5110458;27;20719;-72
2021/05/20 01:28:09;;;;;;;2.70;1.38;;;;;;;;;;5109242;28;20030;-71
2021/05/20 01:31:43;;;;;;;6.85;1.70;;;;;;;;;;5069656;28;20383;-71
2021/05/20 01:34:09;;;;;;;5.70;1.40;;;;;;;;;;5070085;28;20024;-72
2021/05/20 01:36:35;;;;;;;3.92;1.35;;;;;;;;;;5068857;28;20480;-72
2021/05/20 01:39:57;;;;;;;5.22;1.65;;;;;;;;;;5110500;27;20949;-71
2021/05/20 01:42:23;;;;;;;3.00;1.30;;;;;;;;;;5110590;28;20020;-72
2021/05/20 01:45:38;;;;;;;5.60;1.67;;;;;;;;;;5110153;27;20381;-71
2021/05/20 01:48:05;;;;;;;5.85;1.35;;;;;;;;;;5110488;28;20038;-72
2021/05/20 01:50:31;;;;;;;5.57;1.30;;;;;;;;;;5110403;28;20046;-72
2021/05/20 01:52:57;;;;;;;4.88;1.35;;;;;;;;;;5110003;28;20495;-72
2021/05/20 01:57:40;;;;;;;6.93;1.48;;;;;;;;;;5050067;28;20414;-73
2021/05/20 02:00:08;;;;;;;10.52;1.23;;;;;;;;;;5048219;28;20025;-73
2021/05/20 02:04:18;;;;;;;5.75;1.15;;;;;;;;;;5110504;27;20426;-72
2021/05/20 02:06:44;;;;;;;6.63;1.27;;;;;;;;;;5110019;28;20085;-71
2021/05/20 02:09:10;;;;;;;3.08;0.80;;;;;;;;;;5110435;28;20027;-72
2021/05/20 02:11:36;;;;;;;4.45;1.13;;;;;;;;;;5110435;28;20426;-71
2021/05/20 02:14:03;;;;;;;6.20;1.25;;;;;;;;;;5110021;28;20024;-72
2021/05/20 02:17:26;;;;;;;2.92;1.08;;;;;;;;;;5110762;27;20388;-72
2021/05/20 02:19:52;;;;;;;3.05;0.82;;;;;;;;;;5110055;28;20032;-71
2021/05/20 02:22:19;;;;;;;4.15;1.10;;;;;;;;;;5109172;28;20130;-72
2021/05/20 02:24:45;;;;;;;7.32;1.65;;;;;;;;;;5110681;28;20028;-71
2021/05/20 02:27:11;;;;;;;3.47;1.25;;;;;;;;;;5110544;28;20020;-71
2021/05/20 02:29:37;;;;;;;4.43;1.20;;;;;;;;;;5108991;28;20048;-71
2021/05/20 02:35:33;;;;;;;5.10;0.85;;;;;;;;;;5110203;27;20434;-71
2021/05/20 02:37:59;;;;;;;4.22;1.00;;;;;;;;;;5110738;28;20111;-71
2021/05/20 02:40:25;;;;;;;2.60;0.77;;;;;;;;;;5110079;28;20106;-71
2021/05/20 02:43:19;;;;;;;1.88;0.85;;;;;;;;;;5111062;27;20381;-72
2021/05/20 02:49:54;;;;;;;2.67;0.70;;;;;;;;;;5110485;27;20377;-72
2021/05/20 02:52:21;;;;;;;1.27;0.40;;;;;;;;;;5110431;28;20039;-72
2021/05/20 03:00:11;;;;;;;1.80;0.45;;;;;;;;;;5110471;27;20388;-72
2021/05/20 03:02:38;;;;;;;1.58;0.45;;;;;;;;;;5110009;28;20073;-71
2021/05/20 03:06:27;;;;;;;5.90;1.15;;;;;;;;;;5110429;27;20765;-71
2021/05/20 03:11:49;;;;;;;2.83;0.85;;;;;;;;;;5110560;27;20442;-71
2021/05/20 03:14:15;;;;;;;2.67;0.75;;;;;;;;;;5110483;28;20477;-71
2021/05/20 03:16:41;;;;;;;4.63;1.15;;;;;;;;;;5110016;28;20147;-71
2021/05/20 03:22:47;;;;;;;0.85;0.50;;;;;;;;;;5110084;27;20385;-71
2021/05/20 03:25:14;;;;;;;1.08;0.43;;;;;;;;;;5109087;28;20024;-72
2021/05/20 03:27:40;;;;;;;1.73;0.70;;;;;;;;;;5109145;28;20111;-73
2021/05/20 03:30:07;;;;;;;0.75;0.30;;;;;;;;;;5110023;28;20073;-72
2021/05/20 03:32:33;;;;;;;1.70;0.60;;;;;;;;;;5110426;28;20020;-71
2021/05/20 03:35:34;;;;;;;1.42;0.57;;;;;;;;;;5110462;27;20783;-72
2021/05/20 03:38:00;;;;;;;2.60;0.70;;;;;;;;;;5108988;28;20542;-72
2021/05/20 03:44:40;;;;;;;4.65;0.80;;;;;;;;;;5110124;27;20373;-71
2021/05/20 03:47:07;;;;;;;2.38;0.65;;;;;;;;;;5110418;28;20045;-72
2021/05/20 03:54:24;;;;;;;2.42;0.50;;;;;;;;;;5130982;27;20479;-72
2021/05/20 03:58:04;;;;;;;2.78;0.70;;;;;;;;;;5193379;27;20420;-73
2021/05/20 04:00:30;;;;;;;0.70;0.35;;;;;;;;;;5172662;27;20030;-72
2021/05/20 04:02:57;;;;;;;5.28;0.95;;;;;;;;;;5172388;27;20075;-72
2021/05/20 04:05:23;;;;;;;3.33;1.55;;;;;;;;;;5171986;27;20025;-72
2021/05/20 04:08:45;;;;;;;2.38;0.85;;;;;;;;;;5110625;27;20398;-72
2021/05/20 04:11:12;;;;;;;1.65;0.77;;;;;;;;;;5110592;28;20027;-72
2021/05/20 04:15:16;;;;;;;1.23;0.80;;;;;;;;;;5110385;27;20530;-72
2021/05/20 04:19:03;;;;;;;1.50;0.57;;;;;;;;;;5110386;27;20430;-72
2021/05/20 04:21:29;;;;;;;2.15;0.60;;;;;;;;;;5110556;28;20496;-72
2021/05/20 04:23:56;;;;;;;2.78;0.80;;;;;;;;;;5110419;28;20015;-72
2021/05/20 04:26:22;;;;;;;1.73;0.50;;;;;;;;;;5110067;28;20051;-71
2021/05/20 04:28:48;;;;;;;1.27;0.38;;;;;;;;;;5108997;28;20052;-71
2021/05/20 04:31:15;;;;;;;1.48;0.52;;;;;;;;;;5109000;28;20016;-72
2021/05/20 04:33:41;;;;;;;2.70;0.80;;;;;;;;;;5109921;28;20553;-72
2021/05/20 04:36:08;;;;;;;2.58;0.68;;;;;;;;;;5110416;28;20054;-72
2021/05/20 04:39:46;;;;;;;3.97;0.80;;;;;;;;;;5109439;27;20414;-72
2021/05/20 04:42:15;;;;;;;1.33;0.50;;;;;;;;;;5109215;28;20379;-72
2021/05/20 04:45:08;;;;;;;1.70;0.50;;;;;;;;;;5110564;27;20437;-72
2021/05/20 04:47:34;;;;;;;2.50;0.50;;;;;;;;;;5109902;28;20016;-72
2021/05/20 04:50:00;;;;;;;3.28;0.70;;;;;;;;;;5109033;28;20024;-72
2021/05/20 04:54:42;;;;;;;0.90;0.22;;;;;;;;;;5110136;27;20442;-72
2021/05/20 04:57:50;;;;;;;0.90;0.60;;;;;;;;;;5110617;27;20381;-73
2021/05/20 05:02:07;;;;;;;4.72;1.40;;;;;;;;;;5110034;27;20392;-72
2021/05/20 05:04:33;;;;;;;1.15;0.40;;;;;;;;;;5107197;28;20024;-70
2021/05/20 05:07:00;;;;;;;1.52;0.52;;;;;;;;;;5074318;28;20031;-70
2021/05/20 05:09:26;;;;;;;1.52;0.63;;;;;;;;;;5062936;28;20139;-72
2021/05/20 05:11:52;;;;;;;2.63;0.30;;;;;;;;;;5072791;28;20027;-72
2021/05/20 05:16:31;;;;;;;1.35;0.40;;;;;;;;;;5047837;28;20445;-86
2021/05/20 05:18:57;;;;;;;2.13;0.65;;;;;;;;;;5046287;28;20032;-86
2021/05/20 05:21:23;;;;;;;2.60;0.47;;;;;;;;;;5041578;28;20025;-82
2021/05/20 05:23:50;;;;;;;1.30;0.50;;;;;;;;;;5036609;28;20401;-83
2021/05/20 05:26:16;;;;;;;1.55;0.80;;;;;;;;;;5041593;28;20021;-87
2021/05/20 05:28:42;;;;;;;1.15;0.60;;;;;;;;;;5055745;28;20646;-85
2021/05/20 05:31:10;;;;;;;2.22;0.63;;;;;;;;;;5080442;28;20044;-86
2021/05/20 05:33:36;;;;;;;0.30;0.30;;;;;;;;;;5078524;28;20020;-88
2021/05/20 05:36:03;;;;;;;1.88;0.50;;;;;;;;;;5073768;28;20044;-83
2021/05/20 05:38:58;;;;;;;1.42;0.32;;;;;;;;;;5143356;27;20403;-87
2021/05/20 05:41:24;;;;;;;1.52;0.50;;;;;;;;;;5119199;28;20373;-89
2021/05/20 05:43:50;;;;;;;1.98;0.70;;;;;;;;;;5121133;28;20020;-84
2021/05/20 05:46:16;;;;;;;2.83;0.55;;;;;;;;;;5119284;28;20031;-85
2021/05/20 05:49:51;;;;;;;1.05;0.38;;;;;;;;;;5118118;27;20779;-84
2021/05/20 05:54:09;;;;;;;3.65;0.40;;;;;;;;;;5111296;27;20419;-84
2021/05/20 05:57:42;;;;;;;1.80;0.40;;;;;;;;;;5131812;27;20167;-77
2021/05/20 06:00:08;;;;;;;2.25;0.90;;;;;;;;;;5111801;28;20495;-77
2021/05/20 06:02:35;;;;;;;2.13;0.50;;;;;;;;;;5098602;28;20021;-73
2021/05/20 06:06:43;;;;;;;1.00;0.50;;;;;;;;;;5108416;27;20380;-74
2021/05/20 06:09:09;;;;;;;2.83;0.80;;;;;;;;;;5110265;28;20024;-78
2021/05/20 06:11:36;;;;;;;2.83;0.60;;;;;;;;;;5107730;28;20035;-79
2021/05/20 06:15:05;;;;;;;0.98;0.45;;;;;;;;;;5111508;27;20380;-81
2021/05/20 06:17:32;;;;;;;2.25;0.70;;;;;;;;;;5111433;28;20049;-81
2021/05/20 06:19:58;;;;;;;0.55;0.43;;;;;;;;;;5108458;28;20028;-77
2021/05/20 06:23:16;;;;;;;1.23;0.30;;;;;;;;;;5127910;27;20165;-76
2021/05/20 06:25:45;;;;;;;1.27;0.30;;;;;;;;;;5105838;28;20520;-78
2021/05/20 06:31:05;;;;;;;1.10;0.40;;;;;;;;;;5107315;27;20372;-80
2021/05/20 06:33:31;;;;;;;0.30;0.15;;;;;;;;;;5116832;28;20067;-79
2021/05/20 06:35:57;;;;;;;5.72;0.50;;;;;;;;;;5111275;28;20016;-76
2021/05/20 06:40:28;;;;;;;2.95;0.40;;;;;;;;;;5108981;27;20377;-78
2021/05/20 06:42:54;;;;;;;1.73;0.40;;;;;;;;;;5109016;28;20089;-75
2021/05/20 06:45:21;;;;;;;1.00;0.38;;;;;;;;;;5109833;28;20016;-82
2021/05/20 06:47:52;;;;;;;1.48;0.50;;;;;;;;;;5105903;28;20031;-82
2021/05/20 06:50:19;;;;;;;0.50;0.10;;;;;;;;;;5106209;28;20098;-79
2021/05/20 06:53:20;;;;;;;1.70;0.30;;;;;;;;;;5089772;28;20414;-85
2021/05/20 07:01:21;;;;;;;2.60;0.70;;;;;;;;;;5107277;27;20377;-78
2021/05/20 07:03:47;;;;;;;1.65;0.90;;;;;;;;;;5108192;28;20028;-79
2021/05/20 07:06:13;;;;;;;0.22;0.10;;;;;;;;;;5110423;28;20345;-81
2021/05/20 07:08:41;;;;;;;3.63;0.52;;;;;;;;;;5104385;28;20132;-81
2021/05/20 07:11:08;;;;;;;0.57;0.20;;;;;;;;;;5110789;28;20476;-83
2021/05/20 07:13:35;;;;;;;0.20;0.20;;;;;;;;;;5112892;28;20020;-81
2021/05/20 07:16:02;;;;;;;1.70;0.40;;;;;;;;;;5113707;28;20100;-79
2021/05/20 07:19:41;;;;;;;0.50;0.30;;;;;;;;;;5129382;27;20188;-80
2021/05/20 07:22:08;;;;;;;0.68;0.40;;;;;;;;;;5107939;28;20054;-82
2021/05/20 07:25:44;;;;;;;0.75;0.50;;;;;;;;;;4842825;28;5444348;-79
2021/05/20 07:28:11;;;;;;;0.38;0.30;;;;;;;;;;5014375;28;20034;-82
2021/05/20 07:30:38;;;;;;;2.15;0.40;;;;;;;;;;5030668;28;20072;-81
2021/05/20 07:33:04;;;;;;;0.10;0.10;;;;;;;;;;5030685;28;20029;-82
2021/05/20 07:35:30;;;;;;;45.42;10.25;;;;;;;;;;5027879;28;20096;-78
2021/05/20 07:41:13;;;;;;;16.70;4.15;;;;;;;;;;5139417;27;20391;-74
2021/05/20 07:43:39;;;;;;;45.92;11.52;;;;;;;;;;5108047;28;20020;-77
2021/05/20 07:46:05;;;;;;;13.00;3.63;;;;;;;;;;5107953;28;20078;-77
2021/05/20 07:48:33;;;;;;;0.40;0.20;;;;;;;;;;5108638;28;20051;-77
2021/05/20 07:51:00;;;;;;;2.88;0.40;;;;;;;;;;5109145;28;20095;-75
2021/05/20 07:53:27;;;;;;;22.27;3.80;;;;;;;;;;5107392;28;20024;-74
2021/05/20 07:56:33;;;;;;;12.30;2.83;;;;;;;;;;5105240;27;20380;-73
2021/05/20 08:03:43;;;;;;;10.32;2.05;;;;;;;;;;5107521;27;20388;-72
2021/05/20 08:11:14;;;;;;;4.68;1.65;;;;;;;;;;5107567;28;20023;-73
2021/05/20 08:13:40;;;;;;;4.90;1.38;;;;;;;;;;5108436;28;20045;-72
2021/05/20 08:16:06;;;;;;;4.28;1.50;;;;;;;;;;5105915;28;20636;-73
2021/05/20 08:19:00;;;;;;;10.82;1.73;;;;;;;;;;5068090;28;20418;-72
2021/05/20 08:21:48;;;;;;;2.67;0.85;;;;;;;;;;5107244;27;20430;-72
2021/05/20 08:24:15;;;;;;;8.45;2.15;;;;;;;;;;5103375;28;20031;-73
2021/05/20 08:26:41;;;;;;;7.82;1.20;;;;;;;;;;5110944;28;20480;-71
2021/05/20 08:29:07;;;;;;;2.15;1.05;;;;;;;;;;5110614;28;20055;-73
2021/05/20 08:31:34;;;;;;;5.38;1.00;;;;;;;;;;5106821;28;20035;-73
2021/05/20 08:34:01;;;;;;;3.22;0.80;;;;;;;;;;5102631;28;20396;-73
2021/05/20 08:38:18;;;;;;;2.70;1.15;;;;;;;;;;5102409;27;20417;-72
2021/05/20 08:41:31;;;;;;;3.20;0.50;;;;;;;;;;5063866;28;20391;-73
2021/05/20 08:43:58;;;;;;;0.88;0.40;;;;;;;;;;5065316;28;20485;-73
2021/05/20 08:46:26;;;;;;;2.08;0.50;;;;;;;;;;5067359;28;20063;-73
2021/05/20 08:48:52;;;;;;;0.75;0.32;;;;;;;;;;5069470;28;20106;-73
2021/05/20 08:51:19;;;;;;;7.40;1.13;;;;;;;;;;5065146;28;20032;-69
2021/05/20 08:53:46;;;;;;;1.38;0.60;;;;;;;;;;5061418;28;20514;-68
2021/05/20 08:56:13;;;;;;;0.98;0.52;;;;;;;;;;5067327;28;20036;-67
2021/05/20 08:58:39;;;;;;;4.47;0.85;;;;;;;;;;5068996;28;20096;-68
2021/05/20 09:01:06;;;;;;;0.90;0.50;;;;;;;;;;5065869;28;20473;-69
2021/05/20 09:03:32;;;;;;;1.65;0.73;;;;;;;;;;5060376;28;20378;-68
2021/05/20 09:07:06;;;;;;;4.28;1.15;;;;;;;;;;5066424;28;20391;-68
2021/05/20 09:09:36;;;;;;;11.23;2.30;;;;;;;;;;5049946;28;20025;-67
2021/05/20 09:12:02;;;;;;;4.85;1.98;;;;;;;;;;5040702;28;20033;-68
2021/05/20 09:14:33;;;;;;;2.00;1.00;;;;;;;;;;5043396;28;20386;-68
2021/05/20 09:17:09;;;;;;;3.72;0.73;;;;;;;;;;5047639;28;20021;-69
2021/05/20 09:19:35;;;;;;;3.33;1.00;;;;;;;;;;5048479;28;20367;-68
2021/05/20 09:22:03;;;;;;;2.10;0.63;;;;;;;;;;5042976;28;20028;-68
2021/05/20 09:24:47;;;;;;;1.77;0.80;;;;;;;;;;5047986;28;20035;-67
2021/05/20 09:27:37;;;;;;;2.60;0.70;;;;;;;;;;5045589;28;20029;-67
2021/05/20 09:30:11;;;;;;;2.65;0.40;;;;;;;;;;5047740;28;20021;-67
2021/05/20 09:32:38;;;;;;;0.65;0.47;;;;;;;;;;5043140;28;20021;-68
2021/05/20 09:35:04;;;;;;;1.25;0.32;;;;;;;;;;5042427;28;20033;-67
2021/05/20 09:37:33;;;;;;;7.63;0.75;;;;;;;;;;5046373;28;20438;-66
2021/05/20 09:40:05;;;;;;;1.35;0.40;;;;;;;;;;5045777;28;20021;-68
2021/05/20 09:42:31;;;;;;;2.10;0.70;;;;;;;;;;5042673;28;20029;-67
2021/05/20 09:45:11;;;;;;;3.65;0.63;;;;;;;;;;5042420;28;20078;-67
2021/05/20 09:47:37;;;;;;;2.65;0.88;;;;;;;;;;5039126;28;20366;-69
2021/05/20 09:50:07;;;;;;;2.53;0.70;;;;;;;;;;5043412;28;20484;-68
2021/05/20 09:52:34;;;;;;;1.15;0.40;;;;;;;;;;5043234;28;20129;-66
2021/05/20 09:55:01;;;;;;;9.07;1.50;;;;;;;;;;5047139;28;20032;-69
2021/05/20 09:57:37;;;;;;;4.68;1.20;;;;;;;;;;5042463;28;20064;-68
2021/05/20 10:00:06;;;;;;;5.07;0.70;;;;;;;;;;5044354;28;20738;-66
2021/05/20 10:02:32;;;;;;;7.10;1.23;;;;;;;;;;5043792;28;20030;-67
2021/05/20 10:05:31;;;;;;;3.42;0.90;;;;;;;;;;5045956;28;20076;-65
2021/05/20 10:07:59;;;;;;;2.13;0.40;;;;;;;;;;5009610;28;20148;-66
2021/05/20 10:10:26;;;;;;;3.65;1.23;;;;;;;;;;5026855;28;20388;-68
2021/05/20 10:12:52;;;;;;;4.03;0.80;;;;;;;;;;5027200;28;20025;-66
2021/05/20 10:15:19;;;;;;;3.67;0.90;;;;;;;;;;5027399;28;20025;-66
2021/05/20 10:17:46;;;;;;;2.67;0.60;;;;;;;;;;5016561;28;20037;-66
2021/05/20 10:20:13;;;;;;;3.15;0.73;;;;;;;;;;5014452;28;20570;-66
2021/05/20 10:22:40;;;;;;;0.75;0.35;;;;;;;;;;5014554;28;20029;-67
2021/05/20 10:25:06;;;;;;;1.92;0.45;;;;;;;;;;5022118;28;20022;-66
2021/05/20 10:27:35;;;;;;;0.43;0.20;;;;;;;;;;5033915;28;20038;-72
2021/05/20 10:30:01;;;;;;;1.17;0.30;;;;;;;;;;5033282;28;20116;-73
2021/05/20 10:32:28;;;;;;;0.52;0.25;;;;;;;;;;5032610;28;20026;-73
2021/05/20 10:34:59;;;;;;;2.47;0.40;;;;;;;;;;5032900;28;20025;-74
2021/05/20 10:37:42;;;;;;;1.38;0.32;;;;;;;;;;5031607;28;20175;-74
2021/05/20 10:40:10;;;;;;;1.15;0.30;;;;;;;;;;5032312;28;20056;-75
2021/05/20 10:42:42;;;;;;;4.63;0.52;;;;;;;;;;5027571;28;20048;-74
2021/05/20 10:45:21;;;;;;;0.80;0.30;;;;;;;;;;5028099;28;20029;-76
2021/05/20 10:48:03;;;;;;;2.75;0.65;;;;;;;;;;5023484;28;20489;-73
2021/05/20 10:51:46;;;;;;;1.75;0.35;;;;;;;;;;5107894;27;20775;-71
2021/05/20 10:54:14;;;;;;;2.13;0.52;;;;;;;;;;5103352;28;20480;-73
2021/05/20 10:56:40;;;;;;;2.63;0.47;;;;;;;;;;5095991;28;20482;-74
2021/05/20 10:59:25;;;;;;;1.65;0.30;;;;;;;;;;5081514;28;20705;-74
2021/05/20 11:01:51;;;;;;;0.28;0.10;;;;;;;;;;5105997;28;20123;-74
2021/05/20 11:04:32;;;;;;;2.55;0.60;;;;;;;;;;5102188;28;20039;-73
2021/05/20 11:06:59;;;;;;;2.75;0.80;;;;;;;;;;5084496;28;20023;-73
2021/05/20 11:09:41;;;;;;;1.38;0.50;;;;;;;;;;5080628;28;20101;-73
2021/05/20 11:12:07;;;;;;;0.70;0.50;;;;;;;;;;5086674;28;20500;-75
2021/05/20 11:14:35;;;;;;;2.03;1.10;;;;;;;;;;5085055;28;20400;-75
2021/05/20 11:17:01;;;;;;;1.65;0.75;;;;;;;;;;5087382;28;20022;-74
2021/05/20 11:19:30;;;;;;;1.75;0.55;;;;;;;;;;5086790;28;20111;-73
2021/05/20 11:23:22;;;;;;;3.50;0.70;;;;;;;;;;5088701;28;20311;-72
2021/05/20 11:25:59;;;;;;;3.53;0.75;;;;;;;;;;5089017;28;20112;-73
2021/05/20 11:28:25;;;;;;;7.20;1.08;;;;;;;;;;5089038;28;20461;-73
2021/05/20 11:30:58;;;;;;;8.57;1.33;;;;;;;;;;5090867;28;20039;-70
2021/05/20 11:33:26;;;;;;;7.65;0.80;;;;;;;;;;5109971;28;20016;-70
2021/05/20 11:38:54;;;;;;;2.83;0.85;;;;;;;;;;5149653;27;20337;-69
2021/05/20 11:41:21;;;;;;;1.92;0.65;;;;;;;;;;5129366;28;20031;-69
2021/05/20 11:43:47;;;;;;;1.63;0.55;;;;;;;;;;5130358;27;20049;-69
2021/05/20 11:46:26;;;;;;;7.18;0.82;;;;;;;;;;5110055;27;20135;-71
2021/05/20 11:48:56;;;;;;;1.65;0.60;;;;;;;;;;5110223;28;20093;-71
2021/05/20 11:51:42;;;;;;;1.25;0.50;;;;;;;;;;5109641;28;20027;-70
2021/05/20 11:54:27;;;;;;;2.17;0.75;;;;;;;;;;5110264;27;20434;-70
2021/05/20 11:56:54;;;;;;;2.33;0.95;;;;;;;;;;5109770;28;20073;-70
2021/05/20 11:59:25;;;;;;;1.10;0.73;;;;;;;;;;5109674;28;20106;-71
2021/05/20 12:01:51;;;;;;;1.88;0.95;;;;;;;;;;5110042;28;20035;-71
2021/05/20 12:04:18;;;;;;;1.20;0.70;;;;;;;;;;5109330;28;20043;-70
2021/05/20 12:08:18;;;;;;;1.27;0.55;;;;;;;;;;5069294;28;20444;-71
2021/05/20 12:10:50;;;;;;;1.42;0.50;;;;;;;;;;5069243;28;20103;-70
2021/05/20 12:13:36;;;;;;;1.42;0.82;;;;;;;;;;5110091;27;20385;-70
2021/05/20 12:16:02;;;;;;;4.03;1.20;;;;;;;;;;5108979;28;20038;-70
2021/05/20 12:18:28;;;;;;;4.03;1.02;;;;;;;;;;5108343;28;20537;-71
2021/05/20 12:20:54;;;;;;;2.65;0.98;;;;;;;;;;5109874;28;20028;-72
2021/05/20 12:23:21;;;;;;;0.68;0.47;;;;;;;;;;5109374;28;20051;-70
2021/05/20 12:25:47;;;;;;;1.63;0.60;;;;;;;;;;5109629;28;20035;-71
2021/05/20 12:28:13;;;;;;;4.95;0.60;;;;;;;;;;5108643;28;20500;-72
2021/05/20 12:30:39;;;;;;;0.98;0.68;;;;;;;;;;5104237;28;20417;-70
2021/05/20 12:33:42;;;;;;;0.52;0.50;;;;;;;;;;5110494;27;20385;-73
2021/05/20 12:36:08;;;;;;;0.30;0.30;;;;;;;;;;5110650;28;20024;-73
2021/05/20 12:38:35;;;;;;;3.65;1.02;;;;;;;;;;5109799;28;20028;-72
2021/05/20 12:41:01;;;;;;;0.70;0.30;;;;;;;;;;5110440;28;20016;-72
2021/05/20 12:44:18;;;;;;;6.13;0.55;;;;;;;;;;5110394;27;20380;-71
2021/05/20 12:46:44;;;;;;;0.30;0.30;;;;;;;;;;5109997;28;20032;-71
2021/05/20 12:50:34;;;;;;;0.40;0.40;;;;;;;;;;5131145;27;20161;-71
2021/05/20 12:53:01;;;;;;;0.50;0.50;;;;;;;;;;5110033;28;20089;-71
2021/05/20 12:55:31;;;;;;;0.73;0.20;;;;;;;;;;5109430;28;20020;-71
2021/05/20 12:58:00;;;;;;;2.85;1.30;;;;;;;;;;5110258;28;20095;-71
2021/05/20 13:00:29;;;;;;;1.15;0.45;;;;;;;;;;5109676;28;20020;-71
2021/05/20 13:02:59;;;;;;;1.17;0.47;;;;;;;;;;5110030;28;20095;-71
2021/05/20 13:05:27;;;;;;;1.40;0.35;;;;;;;;;;5110125;28;20027;-71
2021/05/20 13:07:54;;;;;;;6.38;0.88;;;;;;;;;;5091618;28;20373;-71
2021/05/20 13:10:33;;;;;;;0.40;0.30;;;;;;;;;;5110215;28;20038;-71
2021/05/20 13:12:59;;;;;;;1.20;0.30;;;;;;;;;;5110128;28;20426;-71
2021/05/20 13:15:26;;;;;;;5.53;0.47;;;;;;;;;;5109632;28;20086;-73
2021/05/20 13:18:16;;;;;;;1.95;0.57;;;;;;;;;;5109962;28;20073;-73
2021/05/20 13:23:28;;;;;;;0.90;0.15;;;;;;;;;;5109857;28;20031;-72
2021/05/20 13:26:33;;;;;;;2.72;0.30;;;;;;;;;;5110328;27;20109;-71
2021/05/20 13:28:59;;;;;;;1.15;0.28;;;;;;;;;;5108720;28;20031;-71
2021/05/20 13:31:26;;;;;;;1.38;0.20;;;;;;;;;;5109270;28;20031;-71
2021/05/20 13:33:52;;;;;;;5.18;0.45;;;;;;;;;;5110122;28;20034;-71
2021/05/20 13:36:19;;;;;;;0.20;0.20;;;;;;;;;;5109878;28;20024;-71
2021/05/20 13:38:45;;;;;;;0.55;0.20;;;;;;;;;;5109008;28;20114;-72
2021/05/20 13:43:20;;;;;;;2.10;0.43;;;;;;;;;;5110131;27;20377;-71
2021/05/20 13:45:46;;;;;;;1.55;0.43;;;;;;;;;;5110469;28;20023;-71
2021/05/20 13:48:12;;;;;;;2.40;0.40;;;;;;;;;;5109056;28;20031;-70
2021/05/20 13:50:40;;;;;;;0.75;0.22;;;;;;;;;;5108723;28;20476;-71
2021/05/20 13:53:06;;;;;;;2.67;0.40;;;;;;;;;;5110408;28;20016;-71
2021/05/20 13:55:32;;;;;;;0.55;0.25;;;;;;;;;;5110217;28;20040;-71
2021/05/20 13:57:58;;;;;;;0.63;0.15;;;;;;;;;;5109671;28;20058;-71
2021/05/20 14:00:28;;;;;;;0.93;0.30;;;;;;;;;;5108830;28;20077;-71
2021/05/20 14:03:37;;;;;;;3.88;0.80;;;;;;;;;;5110007;27;20467;-71
2021/05/20 14:06:03;;;;;;;4.95;0.90;;;;;;;;;;5109048;28;20088;-71
2021/05/20 14:08:29;;;;;;;1.92;0.50;;;;;;;;;;5110307;28;20020;-70
2021/05/20 14:10:56;;;;;;;6.75;1.10;;;;;;;;;;5110041;28;20490;-72
2021/05/20 14:15:33;;;;;;;1.23;0.40;;;;;;;;;;5110442;27;20442;-71
2021/05/20 14:17:59;;;;;;;3.78;0.38;;;;;;;;;;5110047;28;20081;-71
2021/05/20 14:20:30;;;;;;;1.02;0.60;;;;;;;;;;5109111;28;20032;-70
2021/05/20 14:22:56;;;;;;;1.08;0.50;;;;;;;;;;5108973;28;20430;-70
2021/05/20 14:25:25;;;;;;;2.38;0.60;;;;;;;;;;5110022;28;20134;-72
2021/05/20 14:29:59;;;;;;;1.85;0.32;;;;;;;;;;5110479;27;20170;-71
2021/05/20 14:32:26;;;;;;;1.80;0.77;;;;;;;;;;5110278;28;20043;-71
2021/05/20 14:35:40;;;;;;;0.60;0.13;;;;;;;;;;5110442;27;20407;-72
2021/05/20 14:39:09;;;;;;;0.75;0.30;;;;;;;;;;5102017;27;20392;-71
2021/05/20 14:43:01;;;;;;;0.80;0.40;;;;;;;;;;5110452;27;20514;-72
2021/05/20 14:45:28;;;;;;;1.75;0.35;;;;;;;;;;5103743;28;20028;-70
2021/05/20 14:47:54;;;;;;;0.82;0.50;;;;;;;;;;5107782;28;20436;-71
2021/05/20 14:50:41;;;;;;;1.95;0.90;;;;;;;;;;5130702;27;20112;-71
2021/05/20 14:53:11;;;;;;;2.37;0.57;;;;;;;;;;5110163;28;20066;-71
2021/05/20 14:55:55;;;;;;;2.75;1.15;;;;;;;;;;5110573;27;20173;-71
2021/05/20 15:06:35;;;;;;;0.82;0.43;;;;;;;;;;5110207;28;20031;-72
2021/05/20 15:09:08;;;;;;;0.60;0.20;;;;;;;;;;5108929;28;20472;-71
2021/05/20 15:11:54;;;;;;;0.43;0.28;;;;;;;;;;5131001;27;20165;-71
2021/05/20 15:14:38;;;;;;;0.22;0.10;;;;;;;;;;5130853;27;20034;-71
2021/05/20 15:17:25;;;;;;;1.42;0.50;;;;;;;;;;5131007;27;20084;-71
2021/05/20 15:20:27;;;;;;;1.45;0.57;;;;;;;;;;5110000;27;20385;-71
2021/05/20 15:22:54;;;;;;;0.60;0.35;;;;;;;;;;5110558;28;20058;-71
2021/05/20 15:28:11;;;;;;;1.02;0.50;;;;;;;;;;5110146;27;20165;-70
2021/05/20 15:30:38;;;;;;;0.70;0.50;;;;;;;;;;5108986;28;20054;-71
2021/05/20 15:35:17;;;;;;;2.05;0.50;;;;;;;;;;5110199;27;20418;-72
2021/05/20 15:37:43;;;;;;;3.65;0.85;;;;;;;;;;5110495;28;20024;-71
2021/05/20 15:40:11;;;;;;;1.05;0.45;;;;;;;;;;5110319;28;20032;-71
2021/05/20 15:43:09;;;;;;;3.47;0.80;;;;;;;;;;5110143;27;20384;-71
2021/05/20 15:46:18;;;;;;;3.33;0.88;;;;;;;;;;5110415;27;20381;-71
2021/05/20 15:51:30;;;;;;;12.63;1.70;;;;;;;;;;5110341;28;20089;-72
2021/05/20 15:53:56;;;;;;;1.92;0.70;;;;;;;;;;5109197;28;20554;-72
2021/05/20 15:56:22;;;;;;;1.70;0.90;;;;;;;;;;5109876;28;20031;-71
2021/05/20 16:00:51;;;;;;;2.65;1.17;;;;;;;;;;5110435;27;20869;-71
2021/05/20 16:03:17;;;;;;;1.73;0.85;;;;;;;;;;5110087;28;20034;-70
2021/05/20 16:05:43;;;;;;;1.50;0.73;;;;;;;;;;5110349;28;20467;-71
2021/05/20 16:09:28;;;;;;;4.00;1.25;;;;;;;;;;5109967;27;20389;-70
2021/05/20 16:14:38;;;;;;;6.35;1.63;;;;;;;;;;5110683;27;20438;-71
2021/05/20 16:17:59;;;;;;;2.90;1.17;;;;;;;;;;5069446;28;20795;-70
2021/05/20 16:20:26;;;;;;;3.15;1.38;;;;;;;;;;5068465;28;20082;-71
2021/05/20 16:37:10;;;;;;;1.08;0.30;;;;;;;;;;5110351;28;20562;-72
2021/05/20 16:39:36;;;;;;;0.30;0.30;;;;;;;;;;5109970;28;20023;-73
2021/05/20 16:43:28;;;;;;;2.35;0.88;;;;;;;;;;5069673;28;20388;-71
2021/05/20 16:45:55;;;;;;;3.75;1.80;;;;;;;;;;5069493;28;20029;-71
2021/05/20 16:53:51;;;;;;;4.05;0.90;;;;;;;;;;5110659;27;20385;-70
2021/05/20 16:56:21;;;;;;;3.03;1.15;;;;;;;;;;5110442;28;20376;-70
2021/05/20 16:58:48;;;;;;;1.48;0.70;;;;;;;;;;5109923;28;20178;-71
2021/05/20 17:01:15;;;;;;;4.13;0.63;;;;;;;;;;5109019;28;20016;-72
2021/05/20 17:05:26;;;;;;;1.05;0.50;;;;;;;;;;5110256;27;20389;-71
2021/05/20 17:07:53;;;;;;;2.08;0.65;;;;;;;;;;5109013;28;20027;-70
2021/05/20 17:10:19;;;;;;;3.22;0.50;;;;;;;;;;5110264;28;20024;-71
2021/05/20 17:13:37;;;;;;;0.77;0.50;;;;;;;;;;5110167;27;20385;-71
2021/05/20 17:16:04;;;;;;;0.40;0.38;;;;;;;;;;5109258;28;20032;-71
2021/05/20 17:18:31;;;;;;;0.80;0.65;;;;;;;;;;5109135;28;20023;-72
2021/05/20 17:24:20;;;;;;;1.25;0.50;;;;;;;;;;5110101;27;20788;-71
2021/05/20 17:26:46;;;;;;;5.15;1.45;;;;;;;;;;5110099;28;20415;-71
2021/05/20 17:29:12;;;;;;;1.63;0.70;;;;;;;;;;5110416;28;20024;-70
2021/05/20 17:33:34;;;;;;;1.60;0.90;;;;;;;;;;5110648;27;20458;-72
2021/05/20 17:38:11;;;;;;;2.33;0.73;;;;;;;;;;5110418;27;20161;-71
2021/05/20 17:40:37;;;;;;;1.55;0.55;;;;;;;;;;5110372;28;20036;-71
2021/05/20 17:44:52;;;;;;;1.50;0.55;;;;;;;;;;5110341;27;20388;-70
2021/05/20 17:47:48;;;;;;;2.30;0.57;;;;;;;;;;5069497;28;20394;-72
2021/05/20 17:50:14;;;;;;;1.92;0.93;;;;;;;;;;5069841;28;20489;-69
2021/05/20 17:55:24;;;;;;;1.00;0.70;;;;;;;;;;5049832;27;20392;-71
2021/05/20 17:59:30;;;;;;;1.15;0.85;;;;;;;;;;5069968;28;20441;-73